Página principal
METAR-TAF:

METAR-TAF

Aeroportos :

Aeroporto de Taiyuan Wusu

Taiyuan, China

latitude: 37-47N, longitude: 112-33E, altura: 779 m

Observação actual do tempo

O boletim foi feito há 11 minutos, às 17:00 UTC
Vento 6 kt de nor-noroeste
Temperatura 16°C
Humidade 88%
Pressão 1017 hPa
Visibilidade: 5000 m
Poucas nuvensa uma altura de 2000 ft
Encobertoa uma altura de 4000 ft
chuva fraca, neblina

METAR: ZBYN 181700Z 33003MPS 5000 -RA BR FEW020 OVC040 16/14 Q1017 NOSIG

Hora: 01:11 (17:11 UTC)

Previsão

O boletim foi feito há 8 horas e 0 minutos, às 09:11 UTC
Previsão válida de 18 às 12 UTC a 19 às 12 UTC
Vento 6 kt de este
Visibilidade: 3000 m
Nuvens dispersasa uma altura de 3000 ft
chuva fraca, neblina

TAF: ZBYN 180911Z 1812/1912 09003MPS 3000 -RA BR SCT030 TX19/1907Z TN12/1822Z

Observações e previsões do tempo de mais de 4000 aeroportos (mensagens METAR e TAF).

As estações disponíveis são os pontos amarelos e vermelhos sobre o mapa.

Mova o rato sobre o mapa para ver o nome da estação.

Depois clique no ponto para visualizar as observações e previsões meteorológicas.

Para alterar o mapa : clique nos botões verdes com uma cruz preta para aumentar o zoom; no botão verde com uma pitada de zoom; ou nas setas verdes para mapas adjacentes.


METAR-TAF: